Time;durP1;ratioP1;P1;durP2;ratioP2;P2;SDS_P1;SDS_P2;PMS_P1;PMS_P2;Temp;Humidity;BMP_temperature;BMP_pressure;BME280_temperature;BME280_humidity;BME280_pressure;Samples;Min_cycle;Max_cycle;Signal;HPM_P1;HPM_P2
2024/02/26 00:00:43;;;;;;;58.00;3.50;;;;;;;;;;5054896;28;20489;-73
2024/02/26 00:03:10;;;;;;;58.17;3.10;;;;;;;;;;5056906;28;20516;-73
2024/02/26 00:05:38;;;;;;;56.30;3.50;;;;;;;;;;5074627;28;20471;-73
2024/02/26 00:08:07;;;;;;;59.70;3.63;;;;;;;;;;5074755;28;20451;-73
2024/02/26 00:10:34;;;;;;;57.30;3.77;;;;;;;;;;5074585;28;20933;-73
2024/02/26 00:13:01;;;;;;;56.10;3.10;;;;;;;;;;5074743;28;20445;-73
2024/02/26 00:15:29;;;;;;;56.90;3.20;;;;;;;;;;5074337;28;20475;-73
2024/02/26 00:17:56;;;;;;;56.87;4.00;;;;;;;;;;5074203;28;20968;-73
2024/02/26 00:20:23;;;;;;;59.13;3.13;;;;;;;;;;5074781;28;20456;-73
2024/02/26 00:22:50;;;;;;;58.30;4.10;;;;;;;;;;5074618;28;20481;-73
2024/02/26 00:25:18;;;;;;;56.53;3.63;;;;;;;;;;5074648;28;20445;-73
2024/02/26 00:27:45;;;;;;;56.77;3.17;;;;;;;;;;5074440;28;20451;-73
2024/02/26 00:30:13;;;;;;;57.40;3.40;;;;;;;;;;5074259;28;20450;-73
2024/02/26 00:32:40;;;;;;;57.10;3.53;;;;;;;;;;5074065;28;20924;-73
2024/02/26 00:35:09;;;;;;;56.17;3.43;;;;;;;;;;5074001;28;20456;-73
2024/02/26 00:37:36;;;;;;;57.20;3.37;;;;;;;;;;5074574;28;20448;-73
2024/02/26 00:40:03;;;;;;;57.30;4.17;;;;;;;;;;5074074;28;20483;-72
2024/02/26 00:42:32;;;;;;;57.00;3.20;;;;;;;;;;5074087;28;20487;-73
2024/02/26 00:44:59;;;;;;;57.10;3.47;;;;;;;;;;5056817;28;20942;-73
2024/02/26 00:47:26;;;;;;;58.03;3.80;;;;;;;;;;5058314;28;20829;-72
2024/02/26 00:49:53;;;;;;;56.40;3.40;;;;;;;;;;5074160;28;20436;-72
2024/02/26 00:52:20;;;;;;;56.83;3.37;;;;;;;;;;5073923;28;20439;-73
2024/02/26 00:54:47;;;;;;;57.87;3.40;;;;;;;;;;5073811;28;20456;-72
2024/02/26 00:57:14;;;;;;;57.37;3.17;;;;;;;;;;5073748;28;20975;-73
2024/02/26 00:59:42;;;;;;;55.87;3.20;;;;;;;;;;5073716;28;20453;-73
2024/02/26 01:02:09;;;;;;;56.93;3.27;;;;;;;;;;5073789;28;20486;-73
2024/02/26 01:04:37;;;;;;;59.40;3.53;;;;;;;;;;5073491;28;20956;-73
2024/02/26 01:07:04;;;;;;;56.87;3.40;;;;;;;;;;5073687;28;20468;-73
2024/02/26 01:09:31;;;;;;;57.40;3.50;;;;;;;;;;5073650;28;20445;-73
2024/02/26 01:11:58;;;;;;;56.30;3.40;;;;;;;;;;5073443;28;20450;-72
2024/02/26 01:14:25;;;;;;;56.87;3.33;;;;;;;;;;5073389;28;20946;-73
2024/02/26 01:16:53;;;;;;;56.87;3.20;;;;;;;;;;5073584;28;20475;-73
2024/02/26 01:19:21;;;;;;;57.00;3.23;;;;;;;;;;5073462;28;20447;-73
2024/02/26 01:21:48;;;;;;;57.30;3.80;;;;;;;;;;5073433;28;20860;-72
2024/02/26 01:24:15;;;;;;;58.20;3.70;;;;;;;;;;5073005;28;20444;-72
2024/02/26 01:26:43;;;;;;;58.53;3.60;;;;;;;;;;5073114;28;20526;-73
2024/02/26 01:29:10;;;;;;;57.10;3.20;;;;;;;;;;5073647;28;20457;-73
2024/02/26 01:31:37;;;;;;;57.07;3.37;;;;;;;;;;5073277;28;20944;-73
2024/02/26 01:34:05;;;;;;;57.27;3.57;;;;;;;;;;5072803;28;20461;-73
2024/02/26 01:36:34;;;;;;;56.87;3.67;;;;;;;;;;5073025;28;20491;-73
2024/02/26 01:39:03;;;;;;;57.17;3.57;;;;;;;;;;5072795;28;20460;-72
2024/02/26 01:41:30;;;;;;;58.10;3.77;;;;;;;;;;5072746;28;20522;-72
2024/02/26 01:43:57;;;;;;;56.90;3.63;;;;;;;;;;5072674;28;20448;-72
2024/02/26 01:46:24;;;;;;;56.93;3.70;;;;;;;;;;5072876;28;20560;-72
2024/02/26 01:48:51;;;;;;;56.57;3.90;;;;;;;;;;5072865;28;20453;-72
2024/02/26 01:51:20;;;;;;;58.40;4.03;;;;;;;;;;5072683;28;20873;-72
2024/02/26 01:53:47;;;;;;;58.20;3.57;;;;;;;;;;5072477;28;20811;-72
2024/02/26 01:56:15;;;;;;;57.93;3.70;;;;;;;;;;5072422;28;20464;-72
2024/02/26 01:58:42;;;;;;;57.57;3.60;;;;;;;;;;5072478;28;20479;-72
2024/02/26 02:01:10;;;;;;;59.40;3.63;;;;;;;;;;5072273;28;20970;-72
2024/02/26 02:03:37;;;;;;;57.27;3.60;;;;;;;;;;5072616;28;20452;-71
2024/02/26 02:06:05;;;;;;;56.70;3.30;;;;;;;;;;5072287;28;20471;-71
2024/02/26 02:08:35;;;;;;;57.33;4.03;;;;;;;;;;5071781;28;20773;-71
2024/02/26 02:14:05;;;;;;;56.60;3.20;;;;;;;;;;5051624;28;20413;-71
2024/02/26 02:16:32;;;;;;;57.60;3.40;;;;;;;;;;5052415;28;20841;-71
2024/02/26 02:19:00;;;;;;;58.07;4.23;;;;;;;;;;5052310;28;20452;-72
2024/02/26 02:21:28;;;;;;;58.60;4.40;;;;;;;;;;5064125;28;20495;-72
2024/02/26 02:23:55;;;;;;;57.20;3.80;;;;;;;;;;5072019;28;20445;-72
2024/02/26 02:26:22;;;;;;;56.97;3.30;;;;;;;;;;5068956;28;20478;-72
2024/02/26 02:28:50;;;;;;;55.93;3.30;;;;;;;;;;5052001;28;20949;-72
2024/02/26 02:31:17;;;;;;;56.50;3.37;;;;;;;;;;5052342;28;20449;-72
2024/02/26 02:33:44;;;;;;;57.00;3.80;;;;;;;;;;5051862;28;20462;-72
2024/02/26 02:36:11;;;;;;;57.20;3.03;;;;;;;;;;5051861;28;20472;-72
2024/02/26 02:38:50;;;;;;;61.53;3.80;;;;;;;;;;5051801;28;20442;-72
2024/02/26 02:41:17;;;;;;;56.80;3.20;;;;;;;;;;5051975;28;20450;-72
2024/02/26 02:43:44;;;;;;;56.60;3.40;;;;;;;;;;5051693;28;20448;-72
2024/02/26 02:46:11;;;;;;;58.00;3.10;;;;;;;;;;5061248;28;20471;-72
2024/02/26 02:48:38;;;;;;;56.73;3.40;;;;;;;;;;5071780;28;20451;-71
2024/02/26 02:51:06;;;;;;;55.67;2.80;;;;;;;;;;5071560;28;20816;-71
2024/02/26 02:53:33;;;;;;;57.40;3.67;;;;;;;;;;5071446;28;20440;-72
2024/02/26 02:56:01;;;;;;;57.50;3.00;;;;;;;;;;5071698;28;20470;-72
2024/02/26 02:58:28;;;;;;;56.80;3.23;;;;;;;;;;5071724;28;20444;-72
2024/02/26 03:00:55;;;;;;;57.40;3.77;;;;;;;;;;5071568;28;20472;-72
2024/02/26 03:03:24;;;;;;;56.93;3.40;;;;;;;;;;5071234;28;20554;-72
2024/02/26 03:05:51;;;;;;;56.70;3.60;;;;;;;;;;5071320;28;20861;-72
2024/02/26 03:08:19;;;;;;;57.13;3.60;;;;;;;;;;5071452;28;20455;-72
2024/02/26 03:10:46;;;;;;;56.50;3.10;;;;;;;;;;5071842;28;20849;-72
2024/02/26 03:13:15;;;;;;;56.50;3.30;;;;;;;;;;5071076;28;20995;-72
2024/02/26 03:15:42;;;;;;;57.03;3.90;;;;;;;;;;5071198;28;20472;-72
2024/02/26 03:18:09;;;;;;;57.67;3.83;;;;;;;;;;5071224;28;20895;-72
2024/02/26 03:20:36;;;;;;;57.03;4.00;;;;;;;;;;5070553;28;20444;-72
2024/02/26 03:23:04;;;;;;;56.90;3.50;;;;;;;;;;5071230;28;20577;-71
2024/02/26 03:25:31;;;;;;;59.57;3.90;;;;;;;;;;5071256;28;20468;-71
2024/02/26 03:27:58;;;;;;;55.60;2.90;;;;;;;;;;5071084;28;20942;-71
2024/02/26 03:30:27;;;;;;;57.47;3.60;;;;;;;;;;5071212;28;20445;-71
2024/02/26 03:32:54;;;;;;;56.87;3.30;;;;;;;;;;5071081;28;20453;-72
2024/02/26 03:35:21;;;;;;;58.07;3.10;;;;;;;;;;5070752;28;20463;-73
2024/02/26 03:37:50;;;;;;;56.83;3.20;;;;;;;;;;5063116;28;20818;-72
2024/02/26 03:40:19;;;;;;;56.57;3.07;;;;;;;;;;5070994;28;20460;-72
2024/02/26 03:42:46;;;;;;;57.03;3.03;;;;;;;;;;5071003;28;20476;-73
2024/02/26 03:45:13;;;;;;;57.50;3.70;;;;;;;;;;5070689;28;20886;-72
2024/02/26 03:47:41;;;;;;;60.50;4.20;;;;;;;;;;5071115;28;20449;-73
2024/02/26 03:50:09;;;;;;;57.10;3.37;;;;;;;;;;5071149;28;20448;-72
2024/02/26 03:52:36;;;;;;;57.90;3.97;;;;;;;;;;5071016;28;20454;-72
2024/02/26 03:55:03;;;;;;;56.77;3.40;;;;;;;;;;5054529;28;20828;-72
2024/02/26 03:57:30;;;;;;;57.87;3.40;;;;;;;;;;5062745;28;20449;-73
2024/02/26 03:59:57;;;;;;;56.40;3.53;;;;;;;;;;5070828;28;20796;-72
2024/02/26 04:02:25;;;;;;;56.60;3.30;;;;;;;;;;5054412;28;20491;-73
2024/02/26 04:04:53;;;;;;;56.13;3.63;;;;;;;;;;5070875;28;20892;-73
2024/02/26 04:07:20;;;;;;;56.47;2.90;;;;;;;;;;5070979;28;20467;-72
2024/02/26 04:09:48;;;;;;;57.20;3.83;;;;;;;;;;5070835;28;20445;-73
2024/02/26 04:12:15;;;;;;;56.63;3.40;;;;;;;;;;5070704;28;20452;-72
2024/02/26 04:14:42;;;;;;;57.37;3.90;;;;;;;;;;5070478;28;20449;-72
2024/02/26 04:17:10;;;;;;;58.20;4.03;;;;;;;;;;5070807;28;20464;-73
2024/02/26 04:19:37;;;;;;;56.30;3.47;;;;;;;;;;5070886;28;20453;-72
2024/02/26 04:22:06;;;;;;;57.33;3.77;;;;;;;;;;5070698;28;20497;-72
2024/02/26 04:24:33;;;;;;;56.87;3.67;;;;;;;;;;5062645;28;20447;-73
2024/02/26 04:27:00;;;;;;;56.67;3.10;;;;;;;;;;5070597;28;20464;-73
2024/02/26 04:29:27;;;;;;;57.10;3.53;;;;;;;;;;5071103;28;20456;-73
2024/02/26 04:31:54;;;;;;;57.57;3.57;;;;;;;;;;5072354;28;20443;-73
2024/02/26 04:34:21;;;;;;;56.60;3.20;;;;;;;;;;5073939;28;20456;-73
2024/02/26 04:36:48;;;;;;;56.90;3.47;;;;;;;;;;5074107;28;20972;-73
2024/02/26 04:39:17;;;;;;;57.97;3.77;;;;;;;;;;5074101;28;20453;-73
2024/02/26 04:41:44;;;;;;;57.30;3.70;;;;;;;;;;5073965;28;20456;-72
2024/02/26 04:44:11;;;;;;;56.10;3.33;;;;;;;;;;5073911;28;20491;-72
2024/02/26 04:46:38;;;;;;;56.83;3.50;;;;;;;;;;5074467;28;20981;-73
2024/02/26 04:49:05;;;;;;;56.20;3.30;;;;;;;;;;5074054;28;20449;-73
2024/02/26 04:51:32;;;;;;;56.27;3.40;;;;;;;;;;5073837;28;20448;-73
2024/02/26 04:54:00;;;;;;;56.50;3.40;;;;;;;;;;5073720;28;20442;-73
2024/02/26 04:56:28;;;;;;;57.27;3.70;;;;;;;;;;5073549;28;20467;-73
2024/02/26 05:01:59;;;;;;;57.07;3.60;;;;;;;;;;5073319;28;20433;-73
2024/02/26 05:04:26;;;;;;;56.70;3.67;;;;;;;;;;5073500;28;20444;-73
2024/02/26 05:06:53;;;;;;;57.07;3.40;;;;;;;;;;5073677;28;20476;-73
2024/02/26 05:09:20;;;;;;;56.57;3.70;;;;;;;;;;5073488;28;20445;-73
2024/02/26 05:11:49;;;;;;;56.50;3.77;;;;;;;;;;5073595;28;20956;-73
2024/02/26 05:14:16;;;;;;;57.67;4.00;;;;;;;;;;5073423;28;20445;-73
2024/02/26 05:16:43;;;;;;;57.53;4.13;;;;;;;;;;5073421;28;20476;-73
2024/02/26 05:19:10;;;;;;;56.90;4.07;;;;;;;;;;5065181;28;20444;-73
2024/02/26 05:21:37;;;;;;;57.87;3.60;;;;;;;;;;5053566;28;20452;-73
2024/02/26 05:24:04;;;;;;;57.83;3.80;;;;;;;;;;5053078;28;20587;-73
2024/02/26 05:26:31;;;;;;;59.37;3.73;;;;;;;;;;5053368;28;20471;-73
2024/02/26 05:29:00;;;;;;;57.87;4.23;;;;;;;;;;5053216;28;20536;-73
2024/02/26 05:31:28;;;;;;;57.03;3.97;;;;;;;;;;5053288;28;20498;-73
2024/02/26 05:33:55;;;;;;;58.00;3.70;;;;;;;;;;5053044;28;20540;-73
2024/02/26 05:36:23;;;;;;;56.70;3.47;;;;;;;;;;5052944;28;20881;-73
2024/02/26 05:38:50;;;;;;;56.30;3.30;;;;;;;;;;5052990;28;20459;-73
2024/02/26 05:41:22;;;;;;;59.50;3.80;;;;;;;;;;5053114;28;20464;-73
2024/02/26 05:43:49;;;;;;;57.90;3.97;;;;;;;;;;5052030;28;20996;-73
2024/02/26 05:46:19;;;;;;;58.37;3.90;;;;;;;;;;5053008;28;20480;-73
2024/02/26 05:48:46;;;;;;;56.60;3.87;;;;;;;;;;5053129;28;20630;-73
2024/02/26 05:51:13;;;;;;;58.27;3.60;;;;;;;;;;5052998;28;20449;-73
2024/02/26 05:53:40;;;;;;;56.77;3.60;;;;;;;;;;5053030;28;20469;-73
2024/02/26 05:56:07;;;;;;;56.67;3.30;;;;;;;;;;5053075;28;20473;-73
2024/02/26 05:58:34;;;;;;;56.03;3.00;;;;;;;;;;5052949;28;20452;-73
2024/02/26 06:01:01;;;;;;;57.10;3.30;;;;;;;;;;5052795;28;20445;-73
2024/02/26 06:03:31;;;;;;;57.70;3.60;;;;;;;;;;5052727;28;20485;-73
2024/02/26 06:05:58;;;;;;;57.13;3.70;;;;;;;;;;5053125;28;21007;-73
2024/02/26 06:08:25;;;;;;;59.23;3.40;;;;;;;;;;5071338;28;20974;-73
2024/02/26 06:10:52;;;;;;;56.60;3.00;;;;;;;;;;5072759;28;20456;-73
2024/02/26 06:13:19;;;;;;;56.30;3.43;;;;;;;;;;5072585;28;20451;-73
2024/02/26 06:15:46;;;;;;;57.27;3.67;;;;;;;;;;5072692;28;20471;-73
2024/02/26 06:18:13;;;;;;;57.00;4.37;;;;;;;;;;5072322;28;20588;-73
2024/02/26 06:20:41;;;;;;;58.10;3.60;;;;;;;;;;5073092;28;20834;-73
2024/02/26 06:23:09;;;;;;;58.30;3.83;;;;;;;;;;5072368;28;20480;-73
2024/02/26 06:25:37;;;;;;;58.90;4.37;;;;;;;;;;5072228;28;20468;-73
2024/02/26 06:28:04;;;;;;;57.80;4.60;;;;;;;;;;5072037;28;20951;-73
2024/02/26 06:30:31;;;;;;;58.77;4.20;;;;;;;;;;5072071;28;20475;-73
2024/02/26 06:32:58;;;;;;;58.00;4.70;;;;;;;;;;5072541;28;20445;-73
2024/02/26 06:35:25;;;;;;;59.60;4.33;;;;;;;;;;5071750;28;20482;-73
2024/02/26 06:37:54;;;;;;;56.60;3.93;;;;;;;;;;5072243;28;20444;-73
2024/02/26 06:40:21;;;;;;;57.90;4.50;;;;;;;;;;5070824;28;20600;-73
2024/02/26 06:42:50;;;;;;;57.57;4.90;;;;;;;;;;5052295;28;20448;-74
2024/02/26 06:45:18;;;;;;;58.03;4.30;;;;;;;;;;5051840;28;20450;-75
2024/02/26 06:47:45;;;;;;;58.27;4.27;;;;;;;;;;5065880;28;20452;-74
2024/02/26 06:50:13;;;;;;;59.60;5.20;;;;;;;;;;5072076;28;20448;-73
2024/02/26 06:52:40;;;;;;;57.20;4.43;;;;;;;;;;5072256;28;20436;-73
2024/02/26 06:55:09;;;;;;;57.93;4.70;;;;;;;;;;5071567;28;20447;-73
2024/02/26 06:57:36;;;;;;;57.97;4.40;;;;;;;;;;5059969;28;20459;-73
2024/02/26 07:00:03;;;;;;;57.77;4.13;;;;;;;;;;5051925;28;20445;-73
2024/02/26 07:02:31;;;;;;;58.43;5.10;;;;;;;;;;5051965;28;20456;-73
2024/02/26 07:04:58;;;;;;;61.00;5.10;;;;;;;;;;5051619;28;20493;-73
2024/02/26 07:07:25;;;;;;;58.23;4.47;;;;;;;;;;5051590;28;20472;-73
2024/02/26 07:09:52;;;;;;;59.13;4.60;;;;;;;;;;5051637;28;20544;-73
2024/02/26 07:12:21;;;;;;;57.67;4.00;;;;;;;;;;5051530;28;20446;-73
2024/02/26 07:14:48;;;;;;;59.47;4.97;;;;;;;;;;5056527;28;20929;-71
2024/02/26 07:17:16;;;;;;;57.17;4.00;;;;;;;;;;5071800;28;20550;-72
2024/02/26 07:19:43;;;;;;;59.20;4.07;;;;;;;;;;5072166;28;20863;-73
2024/02/26 07:22:10;;;;;;;58.30;4.83;;;;;;;;;;5064404;28;20457;-73
2024/02/26 07:24:37;;;;;;;58.93;4.63;;;;;;;;;;5054727;28;20488;-73
2024/02/26 07:27:04;;;;;;;58.70;4.30;;;;;;;;;;5071637;28;20473;-73
2024/02/26 07:29:33;;;;;;;57.70;4.37;;;;;;;;;;5071978;28;20445;-72
2024/02/26 07:32:00;;;;;;;58.80;4.77;;;;;;;;;;5072271;28;20658;-72
2024/02/26 07:34:29;;;;;;;59.00;5.00;;;;;;;;;;5061599;28;20452;-72
2024/02/26 07:36:56;;;;;;;58.30;5.10;;;;;;;;;;5051742;28;20508;-72
2024/02/26 07:39:23;;;;;;;59.97;4.67;;;;;;;;;;5051842;28;20449;-73
2024/02/26 07:41:52;;;;;;;57.70;4.17;;;;;;;;;;5052498;28;20456;-73
2024/02/26 07:44:19;;;;;;;58.43;4.30;;;;;;;;;;5051841;28;20494;-73
2024/02/26 07:46:48;;;;;;;58.40;4.53;;;;;;;;;;5053401;28;20477;-73
2024/02/26 07:49:15;;;;;;;59.60;4.70;;;;;;;;;;5053463;28;20450;-73
2024/02/26 07:51:42;;;;;;;61.03;5.17;;;;;;;;;;5065353;28;20453;-73
2024/02/26 07:54:09;;;;;;;58.23;4.63;;;;;;;;;;5073300;28;20448;-72
2024/02/26 07:56:36;;;;;;;59.20;4.47;;;;;;;;;;5068869;28;20473;-72
2024/02/26 07:59:03;;;;;;;57.30;4.33;;;;;;;;;;5051391;28;20456;-72
2024/02/26 08:01:30;;;;;;;60.97;5.60;;;;;;;;;;5051359;28;20544;-72
2024/02/26 08:03:59;;;;;;;57.70;4.60;;;;;;;;;;5051024;28;21023;-72
2024/02/26 08:06:27;;;;;;;58.50;4.83;;;;;;;;;;5051864;28;20477;-72
2024/02/26 08:08:54;;;;;;;59.17;4.30;;;;;;;;;;5055412;28;20810;-72
2024/02/26 08:11:21;;;;;;;59.60;4.70;;;;;;;;;;5055022;28;20454;-72
2024/02/26 08:13:48;;;;;;;58.07;4.83;;;;;;;;;;5054898;28;20441;-71
2024/02/26 08:16:15;;;;;;;57.63;3.90;;;;;;;;;;5054941;28;20468;-71
2024/02/26 08:18:42;;;;;;;57.10;4.10;;;;;;;;;;5055002;28;20854;-72
2024/02/26 08:21:11;;;;;;;61.20;4.70;;;;;;;;;;5054723;28;20450;-71
2024/02/26 08:23:38;;;;;;;58.73;4.17;;;;;;;;;;5055054;28;20551;-71
2024/02/26 08:26:07;;;;;;;57.63;4.50;;;;;;;;;;5061494;28;20470;-72
2024/02/26 08:28:34;;;;;;;58.03;4.40;;;;;;;;;;5074758;28;20444;-71
2024/02/26 08:31:01;;;;;;;58.10;4.23;;;;;;;;;;5074741;28;20454;-71
2024/02/26 08:33:28;;;;;;;58.53;4.10;;;;;;;;;;5074130;28;20494;-71
2024/02/26 08:35:55;;;;;;;58.10;4.17;;;;;;;;;;5074498;28;20918;-71
2024/02/26 08:38:23;;;;;;;57.07;3.93;;;;;;;;;;5074454;28;20445;-71
2024/02/26 08:40:51;;;;;;;59.10;4.60;;;;;;;;;;5074450;28;20451;-71
2024/02/26 08:43:19;;;;;;;57.70;3.67;;;;;;;;;;5074009;28;20457;-71
2024/02/26 08:45:46;;;;;;;57.73;3.70;;;;;;;;;;5074044;28;20491;-71
2024/02/26 08:48:13;;;;;;;57.23;3.90;;;;;;;;;;5074010;28;20463;-71
2024/02/26 08:50:40;;;;;;;58.20;4.70;;;;;;;;;;5074279;28;20461;-71
2024/02/26 08:53:07;;;;;;;59.80;4.70;;;;;;;;;;5074331;28;20449;-71
2024/02/26 08:55:35;;;;;;;58.63;4.10;;;;;;;;;;5074116;28;20503;-71
2024/02/26 08:58:03;;;;;;;57.90;4.00;;;;;;;;;;5074094;28;20816;-71
2024/02/26 09:00:30;;;;;;;56.27;3.70;;;;;;;;;;5073970;28;20445;-71
2024/02/26 09:02:57;;;;;;;57.70;3.83;;;;;;;;;;5074190;28;20450;-71
2024/02/26 09:05:25;;;;;;;58.07;4.63;;;;;;;;;;5073519;28;20504;-71
2024/02/26 09:07:52;;;;;;;58.03;4.63;;;;;;;;;;5074219;28;20458;-72
2024/02/26 09:10:19;;;;;;;57.50;3.90;;;;;;;;;;5073651;28;20457;-71
2024/02/26 09:12:47;;;;;;;57.93;4.60;;;;;;;;;;5065814;28;20441;-71
2024/02/26 09:15:14;;;;;;;57.20;3.83;;;;;;;;;;5073467;28;20918;-70
2024/02/26 09:17:42;;;;;;;57.87;4.90;;;;;;;;;;5073493;28;20928;-70
2024/02/26 09:20:10;;;;;;;56.37;3.43;;;;;;;;;;5073793;28;20438;-72
2024/02/26 09:22:38;;;;;;;57.43;4.07;;;;;;;;;;5071670;28;20537;-72
2024/02/26 09:25:06;;;;;;;56.87;3.90;;;;;;;;;;5053301;28;20478;-70
2024/02/26 09:27:33;;;;;;;57.20;4.10;;;;;;;;;;5053551;28;20456;-71
2024/02/26 09:30:02;;;;;;;56.10;3.10;;;;;;;;;;5053952;28;20455;-72
2024/02/26 09:32:30;;;;;;;59.47;4.27;;;;;;;;;;5053677;28;20455;-72
2024/02/26 09:34:57;;;;;;;56.83;3.30;;;;;;;;;;5053370;28;20459;-72
2024/02/26 09:37:24;;;;;;;57.67;4.03;;;;;;;;;;5053379;28;20481;-72
2024/02/26 09:39:51;;;;;;;61.00;4.80;;;;;;;;;;5057673;28;20813;-73
2024/02/26 09:42:20;;;;;;;57.53;4.10;;;;;;;;;;5073488;28;20816;-72
2024/02/26 09:44:47;;;;;;;56.77;3.67;;;;;;;;;;5073364;28;20936;-72
2024/02/26 09:47:17;;;;;;;58.27;4.23;;;;;;;;;;5073343;28;20990;-72
2024/02/26 09:49:44;;;;;;;57.73;4.43;;;;;;;;;;5073052;28;20547;-72
2024/02/26 09:52:11;;;;;;;57.73;3.97;;;;;;;;;;5073276;28;20454;-72
2024/02/26 09:54:38;;;;;;;57.53;4.23;;;;;;;;;;5072905;28;20440;-72
2024/02/26 09:57:10;;;;;;;58.17;4.93;;;;;;;;;;5072991;28;20460;-71
2024/02/26 09:59:40;;;;;;;61.93;6.00;;;;;;;;;;5073047;28;20459;-70
2024/02/26 10:02:10;;;;;;;58.37;4.33;;;;;;;;;;5067171;28;20477;-71
2024/02/26 10:04:39;;;;;;;60.07;4.60;;;;;;;;;;5052679;28;20482;-72
2024/02/26 10:07:11;;;;;;;61.37;5.30;;;;;;;;;;5052754;28;20468;-72
2024/02/26 10:09:38;;;;;;;57.17;4.07;;;;;;;;;;5052576;28;20455;-72
2024/02/26 10:12:06;;;;;;;58.57;4.57;;;;;;;;;;5052845;28;20446;-71
2024/02/26 10:14:33;;;;;;;57.80;4.50;;;;;;;;;;5052530;28;20451;-71
2024/02/26 10:17:01;;;;;;;57.37;4.00;;;;;;;;;;5052711;28;20475;-72
2024/02/26 10:19:29;;;;;;;57.90;4.17;;;;;;;;;;5052452;28;20509;-71
2024/02/26 10:21:59;;;;;;;58.77;4.03;;;;;;;;;;5052631;28;20452;-71
2024/02/26 10:24:26;;;;;;;59.10;4.20;;;;;;;;;;5052318;28;20488;-71
2024/02/26 10:26:53;;;;;;;58.53;4.00;;;;;;;;;;5052275;28;20472;-71
2024/02/26 10:29:21;;;;;;;56.83;3.33;;;;;;;;;;5052022;28;20451;-72
2024/02/26 10:31:48;;;;;;;57.57;3.73;;;;;;;;;;5052581;28;20447;-72
2024/02/26 10:34:16;;;;;;;57.83;3.53;;;;;;;;;;5051911;28;20456;-72
2024/02/26 10:36:43;;;;;;;57.77;3.50;;;;;;;;;;5052383;28;20473;-73
2024/02/26 10:39:13;;;;;;;57.17;3.60;;;;;;;;;;5052336;28;20477;-73
2024/02/26 10:41:41;;;;;;;58.37;4.30;;;;;;;;;;5052724;28;20452;-72
2024/02/26 10:44:10;;;;;;;57.57;3.47;;;;;;;;;;5052117;28;20480;-72
2024/02/26 10:46:38;;;;;;;56.80;3.30;;;;;;;;;;5052045;28;20472;-72
2024/02/26 10:49:08;;;;;;;57.20;3.50;;;;;;;;;;5051796;28;20445;-71
2024/02/26 10:51:37;;;;;;;56.57;3.40;;;;;;;;;;5052228;28;20475;-71
2024/02/26 10:54:07;;;;;;;57.87;3.50;;;;;;;;;;5052070;28;20456;-71
2024/02/26 10:56:37;;;;;;;57.80;3.10;;;;;;;;;;5052004;28;20469;-71
2024/02/26 10:59:05;;;;;;;57.40;3.40;;;;;;;;;;5051994;28;20461;-71
2024/02/26 11:01:32;;;;;;;57.63;3.50;;;;;;;;;;5051597;28;20480;-71
2024/02/26 11:04:01;;;;;;;57.03;3.60;;;;;;;;;;5051698;28;20452;-71
2024/02/26 11:06:29;;;;;;;59.13;4.10;;;;;;;;;;5051700;28;20565;-72
2024/02/26 11:08:56;;;;;;;56.60;3.00;;;;;;;;;;5051934;28;20445;-72
2024/02/26 11:11:23;;;;;;;56.90;3.50;;;;;;;;;;5051850;28;20456;-72
2024/02/26 11:13:52;;;;;;;56.60;3.00;;;;;;;;;;5051531;28;20906;-72
2024/02/26 11:16:20;;;;;;;56.20;2.90;;;;;;;;;;5051524;28;20478;-71
2024/02/26 11:18:49;;;;;;;56.70;3.10;;;;;;;;;;5051715;28;20459;-71
2024/02/26 11:21:18;;;;;;;56.30;3.10;;;;;;;;;;5051907;28;20441;-71
2024/02/26 11:23:45;;;;;;;58.83;3.20;;;;;;;;;;5051584;28;20449;-71
2024/02/26 11:26:13;;;;;;;56.47;2.90;;;;;;;;;;5051568;28;21055;-71
2024/02/26 11:28:40;;;;;;;56.57;3.63;;;;;;;;;;5051318;28;20448;-71
2024/02/26 11:31:09;;;;;;;57.07;3.13;;;;;;;;;;5052350;28;20445;-71
2024/02/26 11:33:37;;;;;;;56.67;3.20;;;;;;;;;;5051485;28;20463;-72
2024/02/26 11:36:04;;;;;;;57.80;3.10;;;;;;;;;;5051567;28;20476;-71
2024/02/26 11:38:31;;;;;;;56.60;3.30;;;;;;;;;;5051440;28;20445;-72
2024/02/26 11:41:00;;;;;;;56.50;3.43;;;;;;;;;;5051687;28;20445;-72
2024/02/26 11:43:42;;;;;;;57.40;3.30;;;;;;;;;;5055789;28;20452;-72
2024/02/26 11:46:26;;;;;;;56.07;3.10;;;;;;;;;;5069314;28;20510;-70
2024/02/26 11:48:53;;;;;;;56.90;3.03;;;;;;;;;;5075876;28;20439;-71
2024/02/26 11:51:26;;;;;;;57.20;3.20;;;;;;;;;;5075433;28;20455;-71
2024/02/26 11:53:53;;;;;;;56.40;2.90;;;;;;;;;;5067051;28;20454;-71
2024/02/26 11:56:24;;;;;;;58.10;3.03;;;;;;;;;;5076495;28;20478;-71
2024/02/26 11:58:55;;;;;;;58.80;3.00;;;;;;;;;;5075327;28;20440;-71
2024/02/26 12:01:47;;;;;;;56.37;3.00;;;;;;;;;;5075345;28;20450;-71
2024/02/26 12:04:16;;;;;;;57.30;3.23;;;;;;;;;;5069724;28;20471;-71
2024/02/26 12:06:44;;;;;;;56.40;2.67;;;;;;;;;;5075403;28;20471;-71
2024/02/26 12:09:13;;;;;;;56.50;2.90;;;;;;;;;;5075273;28;20444;-72
2024/02/26 12:11:40;;;;;;;56.80;3.20;;;;;;;;;;5075240;28;20448;-71
2024/02/26 12:14:08;;;;;;;56.77;2.77;;;;;;;;;;5074924;28;20932;-71
2024/02/26 12:16:39;;;;;;;57.60;2.97;;;;;;;;;;5074938;28;20471;-71
2024/02/26 12:19:08;;;;;;;56.10;2.53;;;;;;;;;;5075112;28;20470;-71
2024/02/26 12:21:36;;;;;;;55.93;2.47;;;;;;;;;;5075051;28;20443;-71
2024/02/26 12:24:13;;;;;;;56.00;2.60;;;;;;;;;;5074893;28;20440;-71
2024/02/26 12:26:40;;;;;;;60.00;3.30;;;;;;;;;;5075025;28;20483;-71
2024/02/26 12:29:08;;;;;;;56.07;2.60;;;;;;;;;;5074759;28;20444;-72
2024/02/26 12:31:36;;;;;;;56.93;3.00;;;;;;;;;;5075079;28;20798;-72
2024/02/26 12:34:04;;;;;;;56.03;2.63;;;;;;;;;;5074090;28;20459;-71
2024/02/26 12:36:34;;;;;;;56.30;2.83;;;;;;;;;;5073520;28;20463;-71
2024/02/26 12:39:01;;;;;;;56.20;2.83;;;;;;;;;;5073838;28;20450;-72
2024/02/26 12:41:30;;;;;;;57.67;2.70;;;;;;;;;;5073379;28;20450;-71
2024/02/26 12:43:57;;;;;;;57.40;3.13;;;;;;;;;;5073449;28;20551;-72
2024/02/26 12:46:24;;;;;;;56.60;2.80;;;;;;;;;;5073327;28;20494;-70
2024/02/26 12:48:51;;;;;;;56.60;3.00;;;;;;;;;;5073070;28;20462;-71
2024/02/26 12:51:19;;;;;;;57.67;2.93;;;;;;;;;;5073367;28;20441;-70
2024/02/26 12:53:49;;;;;;;56.00;2.70;;;;;;;;;;5072445;28;20446;-71
2024/02/26 12:56:17;;;;;;;56.77;2.80;;;;;;;;;;5073264;28;20488;-71
2024/02/26 12:58:45;;;;;;;56.90;2.73;;;;;;;;;;5073178;28;20457;-71
2024/02/26 13:01:15;;;;;;;56.77;2.70;;;;;;;;;;5073174;28;20444;-72
2024/02/26 13:03:42;;;;;;;56.50;2.63;;;;;;;;;;5072857;28;20804;-72
2024/02/26 13:06:10;;;;;;;56.70;3.20;;;;;;;;;;5072849;28;20987;-72
2024/02/26 13:08:37;;;;;;;56.03;2.67;;;;;;;;;;5073172;28;20470;-72
2024/02/26 13:11:05;;;;;;;57.17;3.07;;;;;;;;;;5073210;28;20456;-71
2024/02/26 13:13:32;;;;;;;57.57;3.00;;;;;;;;;;5072810;28;20769;-71
2024/02/26 13:16:04;;;;;;;58.60;3.43;;;;;;;;;;5072906;28;20467;-70
2024/02/26 13:18:31;;;;;;;56.83;2.53;;;;;;;;;;5072901;28;20444;-70
2024/02/26 13:21:08;;;;;;;56.63;2.97;;;;;;;;;;5072626;28;20937;-71
2024/02/26 13:23:35;;;;;;;55.93;2.70;;;;;;;;;;5072315;28;20831;-70
2024/02/26 13:26:02;;;;;;;56.70;2.80;;;;;;;;;;5072878;28;20488;-71
2024/02/26 13:28:30;;;;;;;56.17;2.60;;;;;;;;;;5072940;28;20555;-71
2024/02/26 13:31:00;;;;;;;56.37;2.80;;;;;;;;;;5072900;28;20787;-71
2024/02/26 13:33:27;;;;;;;57.03;2.50;;;;;;;;;;5032118;28;1158256;-71
2024/02/26 13:35:55;;;;;;;56.00;2.30;;;;;;;;;;5073592;28;20222;-71
2024/02/26 13:38:22;;;;;;;56.03;2.17;;;;;;;;;;5073937;28;20444;-71
2024/02/26 13:40:49;;;;;;;55.57;2.20;;;;;;;;;;5073453;28;20451;-71
2024/02/26 13:43:16;;;;;;;56.10;2.23;;;;;;;;;;5073186;28;20450;-71
2024/02/26 13:45:44;;;;;;;55.90;2.10;;;;;;;;;;5073382;28;20487;-72
2024/02/26 13:48:12;;;;;;;55.80;2.30;;;;;;;;;;5073223;28;20452;-71
2024/02/26 13:50:39;;;;;;;56.10;2.17;;;;;;;;;;5073345;28;20940;-71
2024/02/26 13:53:06;;;;;;;56.07;2.40;;;;;;;;;;5073713;28;20444;-71
2024/02/26 13:55:33;;;;;;;56.00;2.30;;;;;;;;;;5073326;28;20468;-71
2024/02/26 13:58:01;;;;;;;55.90;2.20;;;;;;;;;;5073200;28;20454;-71
2024/02/26 14:00:29;;;;;;;60.63;2.40;;;;;;;;;;5073208;28;20440;-73
2024/02/26 14:02:57;;;;;;;55.80;2.20;;;;;;;;;;5072941;28;20805;-71
2024/02/26 14:05:24;;;;;;;55.50;2.10;;;;;;;;;;5072197;28;22006;-71
2024/02/26 14:07:52;;;;;;;55.80;2.03;;;;;;;;;;5072980;28;20456;-71
2024/02/26 14:10:19;;;;;;;57.03;2.60;;;;;;;;;;5072690;28;20792;-71
2024/02/26 14:12:46;;;;;;;55.40;2.00;;;;;;;;;;5073079;28;20487;-71
2024/02/26 14:15:13;;;;;;;55.90;2.30;;;;;;;;;;5072215;28;20883;-71
2024/02/26 14:17:40;;;;;;;56.43;2.33;;;;;;;;;;5072758;28;20505;-71
2024/02/26 14:20:10;;;;;;;56.10;2.30;;;;;;;;;;5072647;28;20448;-71
2024/02/26 14:22:37;;;;;;;56.00;1.80;;;;;;;;;;5072867;28;20444;-72
2024/02/26 14:25:04;;;;;;;55.40;1.97;;;;;;;;;;5052362;28;20455;-72
2024/02/26 14:27:31;;;;;;;55.60;2.10;;;;;;;;;;5060136;28;20459;-72
2024/02/26 14:29:59;;;;;;;55.47;2.00;;;;;;;;;;5072562;28;20892;-72
2024/02/26 14:32:26;;;;;;;55.93;2.00;;;;;;;;;;5072531;28;20451;-72
2024/02/26 14:34:53;;;;;;;56.40;2.30;;;;;;;;;;5072187;28;20543;-72
2024/02/26 14:37:21;;;;;;;55.57;2.00;;;;;;;;;;5072438;28;20467;-72
2024/02/26 14:39:51;;;;;;;56.00;2.33;;;;;;;;;;5070533;28;20441;-72